Time;durP1;ratioP1;P1;durP2;ratioP2;P2;SDS_P1;SDS_P2;PMS_P1;PMS_P2;Temp;Humidity;BMP_temperature;BMP_pressure;BME280_temperature;BME280_humidity;BME280_pressure;Samples;Min_cycle;Max_cycle;Signal;HPM_P1;HPM_P2
2022/05/30 00:01:48;;;;;;;;;;;;;;;13.21;100.00;100060.81;10372586;28;19930;-65
2022/05/30 00:06:53;;;;;;;;;;;;;;;13.20;100.00;100056.47;10372736;28;20258;-66
2022/05/30 00:11:58;;;;;;;;;;;;;;;13.21;100.00;100041.72;10372774;28;19942;-66
2022/05/30 00:17:01;;;;;;;;;;;;;;;13.23;100.00;100047.75;10372376;28;19925;-63
2022/05/30 00:22:06;;;;;;;;;;;;;;;13.21;100.00;100039.97;10372249;28;19926;-64
2022/05/30 00:27:09;;;;;;;;;;;;;;;13.22;100.00;100038.22;10372117;28;19926;-68
2022/05/30 00:32:13;;;;;;;;;;;;;;;13.19;100.00;100033.06;10371823;28;20384;-67
2022/05/30 00:37:17;;;;;;;;;;;;;;;13.16;100.00;100033.16;10371765;28;19925;-64
2022/05/30 00:42:24;;;;;;;;;;;;;;;13.19;100.00;100030.47;10372387;28;19926;-65
2022/05/30 00:47:27;;;;;;;;;;;;;;;13.10;100.00;100036.75;10371457;28;20269;-64
2022/05/30 00:52:33;;;;;;;;;;;;;;;13.08;100.00;100030.72;10371454;28;19925;-63
2022/05/30 00:57:38;;;;;;;;;;;;;;;13.04;100.00;100010.88;10371450;28;19925;-64
2022/05/30 01:02:42;;;;;;;;;;;;;;;13.08;100.00;100004.69;10371412;28;20350;-67
2022/05/30 01:07:48;;;;;;;;;;;;;;;13.04;100.00;100000.47;10371086;28;19926;-65
2022/05/30 01:12:53;;;;;;;;;;;;;;;13.01;100.00;99992.66;10370995;28;19926;-66
2022/05/30 01:17:58;;;;;;;;;;;;;;;12.96;100.00;99998.91;10370946;28;19925;-63
2022/05/30 01:23:17;;;;;;;;;;;;;;;12.97;100.00;99991.06;10370901;28;19926;-62
2022/05/30 01:28:33;;;;;;;;;;;;;;;12.98;100.00;99986.72;10376918;28;19936;-69
2022/05/30 01:33:36;;;;;;;;;;;;;;;12.95;100.00;99976.34;10377611;28;19926;-62
2022/05/30 01:38:39;;;;;;;;;;;;;;;12.88;100.00;99980.88;10377124;28;19929;-64
2022/05/30 01:43:45;;;;;;;;;;;;;;;12.87;100.00;99973.09;10377133;28;19925;-63
2022/05/30 01:48:48;;;;;;;;;;;;;;;12.83;100.00;99969.72;10377524;28;19925;-66
2022/05/30 01:53:51;;;;;;;;;;;;;;;12.80;100.00;99964.59;10376901;28;20353;-68
2022/05/30 01:58:56;;;;;;;;;;;;;;;12.78;100.00;99966.38;10376615;28;19926;-66
2022/05/30 02:04:01;;;;;;;;;;;;;;;12.80;100.00;99961.97;10377120;28;20004;-68
2022/05/30 02:09:05;;;;;;;;;;;;;;;12.71;100.00;99959.59;10376353;28;20016;-67
2022/05/30 02:14:10;;;;;;;;;;;;;;;12.71;100.00;99954.41;10375975;28;20246;-67
2022/05/30 02:19:13;;;;;;;;;;;;;;;12.73;100.00;99966.47;10375926;28;20252;-65
2022/05/30 02:24:16;;;;;;;;;;;;;;;12.74;100.00;99977.75;10375939;28;19932;-65
2022/05/30 02:29:20;;;;;;;;;;;;;;;12.70;100.00;99984.78;10375624;28;19930;-67
2022/05/30 02:39:44;;;;;;;;;;;;;;;12.71;100.00;99985.66;10374345;28;20223;-67
2022/05/30 02:44:49;;;;;;;;;;;;;;;12.74;100.00;99988.16;10375203;28;19925;-66
2022/05/30 02:49:52;;;;;;;;;;;;;;;12.61;100.00;99994.59;10375793;28;19925;-69
2022/05/30 02:54:55;;;;;;;;;;;;;;;12.45;100.00;99999.28;10374746;28;20365;-65
2022/05/30 03:00:00;;;;;;;;;;;;;;;12.32;100.00;100005.66;10374776;28;20285;-68
2022/05/30 03:05:03;;;;;;;;;;;;;;;12.36;100.00;100012.50;10374594;28;20008;-65
2022/05/30 03:10:06;;;;;;;;;;;;;;;12.39;100.00;100012.44;10374603;28;20258;-66
2022/05/30 03:15:11;;;;;;;;;;;;;;;12.44;100.00;100007.97;10374382;28;19932;-64
2022/05/30 03:20:14;;;;;;;;;;;;;;;12.44;100.00;100009.75;10374191;28;20365;-67
2022/05/30 03:25:17;;;;;;;;;;;;;;;12.32;100.00;100008.25;10374011;28;19933;-65
2022/05/30 03:30:22;;;;;;;;;;;;;;;12.41;100.00;100009.78;10373744;28;19934;-68
2022/05/30 03:35:25;;;;;;;;;;;;;;;12.51;100.00;100008.72;10373693;28;19932;-65
2022/05/30 03:40:28;;;;;;;;;;;;;;;12.58;100.00;100008.50;10373508;28;19926;-66
2022/05/30 03:45:33;;;;;;;;;;;;;;;12.54;100.00;100000.81;10373539;28;19925;-69
2022/05/30 03:50:37;;;;;;;;;;;;;;;12.57;100.00;99988.59;10372700;28;19932;-68
2022/05/30 03:55:41;;;;;;;;;;;;;;;12.52;100.00;99994.78;10373047;28;19939;-67
2022/05/30 04:00:45;;;;;;;;;;;;;;;12.56;100.00;99991.22;10372599;28;19926;-65
2022/05/30 04:05:48;;;;;;;;;;;;;;;12.58;100.00;99979.88;10372788;28;19925;-64
2022/05/30 04:10:51;;;;;;;;;;;;;;;12.52;100.00;99984.38;10372993;28;19926;-68
2022/05/30 04:15:56;;;;;;;;;;;;;;;12.48;100.00;99986.19;10372196;28;19947;-66
2022/05/30 04:21:06;;;;;;;;;;;;;;;12.41;100.00;99975.97;10372444;28;19926;-67
2022/05/30 04:26:10;;;;;;;;;;;;;;;12.38;100.00;99973.44;10372390;28;19926;-69
2022/05/30 04:31:15;;;;;;;;;;;;;;;12.35;100.00;99968.31;10372027;28;19947;-64
2022/05/30 04:36:18;;;;;;;;;;;;;;;12.29;100.00;99976.25;10371692;28;19930;-65
2022/05/30 04:41:21;;;;;;;;;;;;;;;12.27;100.00;99976.28;10371598;28;19926;-68
2022/05/30 04:46:26;;;;;;;;;;;;;;;12.30;100.00;99983.19;10352694;28;19936;-68
2022/05/30 04:51:29;;;;;;;;;;;;;;;12.30;100.00;99990.97;10349465;28;20361;-68
2022/05/30 04:56:32;;;;;;;;;;;;;;;12.36;100.00;99990.81;10370697;28;19925;-69
2022/05/30 05:01:38;;;;;;;;;;;;;;;12.32;100.00;99995.25;10375617;28;19926;-68
2022/05/30 05:06:43;;;;;;;;;;;;;;;12.27;100.00;99991.06;10378388;28;19925;-66
2022/05/30 05:11:47;;;;;;;;;;;;;;;12.23;100.00;99984.22;10378407;28;19935;-65
2022/05/30 05:16:51;;;;;;;;;;;;;;;12.21;100.00;99981.66;10377981;28;19926;-68
2022/05/30 05:21:54;;;;;;;;;;;;;;;12.17;100.00;99977.38;10378052;28;19926;-69
2022/05/30 05:26:58;;;;;;;;;;;;;;;12.15;100.00;99980.94;10377472;28;19936;-67
2022/05/30 05:32:04;;;;;;;;;;;;;;;12.14;100.00;99981.81;10377471;28;20305;-69
2022/05/30 05:37:08;;;;;;;;;;;;;;;12.11;100.00;99977.53;10376702;28;20319;-69
2022/05/30 05:42:12;;;;;;;;;;;;;;;12.20;100.00;99973.88;10376999;28;20262;-66
2022/05/30 05:47:17;;;;;;;;;;;;;;;12.26;100.00;99976.31;10376795;28;19929;-67
2022/05/30 05:52:20;;;;;;;;;;;;;;;12.17;100.00;99972.19;10376731;28;19936;-67
2022/05/30 05:57:25;;;;;;;;;;;;;;;12.10;100.00;99965.41;10376094;28;19926;-66
2022/05/30 06:02:30;;;;;;;;;;;;;;;12.18;100.00;99962.66;10376551;28;19925;-64
2022/05/30 06:07:33;;;;;;;;;;;;;;;12.29;100.00;99958.91;10375986;28;19925;-67
2022/05/30 06:12:38;;;;;;;;;;;;;;;12.35;100.00;99953.56;10376069;28;19945;-67
2022/05/30 06:17:43;;;;;;;;;;;;;;;12.41;100.00;99955.13;10375894;28;19939;-68
2022/05/30 06:22:46;;;;;;;;;;;;;;;12.49;100.00;99950.63;10374902;28;19936;-65
2022/05/30 06:27:49;;;;;;;;;;;;;;;12.47;100.00;99940.25;10375075;28;19925;-67
2022/05/30 06:32:53;;;;;;;;;;;;;;;12.54;100.00;99947.03;10375264;28;19981;-67
2022/05/30 06:37:56;;;;;;;;;;;;;;;12.58;100.00;99947.81;10375003;28;19925;-68
2022/05/30 06:42:59;;;;;;;;;;;;;;;12.49;100.00;99953.22;10375329;28;19925;-68
2022/05/30 06:48:04;;;;;;;;;;;;;;;12.59;100.00;99949.50;10376162;28;19925;-66
2022/05/30 06:53:07;;;;;;;;;;;;;;;12.68;100.00;99951.88;10375071;28;20331;-66
2022/05/30 06:58:13;;;;;;;;;;;;;;;12.63;100.00;99951.16;10374443;28;19925;-67
2022/05/30 07:03:18;;;;;;;;;;;;;;;12.69;100.00;99949.22;10375251;28;20266;-67
2022/05/30 07:08:23;;;;;;;;;;;;;;;12.75;100.00;99945.63;10374317;28;19951;-69
2022/05/30 07:13:26;;;;;;;;;;;;;;;12.71;100.00;99947.44;10374349;28;19925;-65
2022/05/30 07:18:30;;;;;;;;;;;;;;;12.61;100.00;99945.94;10373908;28;19925;-68
2022/05/30 07:23:35;;;;;;;;;;;;;;;12.66;100.00;99946.72;10373080;28;19926;-66
2022/05/30 07:28:38;;;;;;;;;;;;;;;12.67;100.00;99952.75;10373360;28;20431;-65
2022/05/30 07:33:43;;;;;;;;;;;;;;;12.71;100.00;99952.66;10373447;28;19925;-66
2022/05/30 07:38:46;;;;;;;;;;;;;;;12.65;100.00;99947.59;10373349;28;19925;-67
2022/05/30 07:43:50;;;;;;;;;;;;;;;12.75;100.00;99943.03;10373469;28;19931;-68
2022/05/30 07:48:54;;;;;;;;;;;;;;;12.69;100.00;99946.63;10372827;28;19926;-67
2022/05/30 07:53:58;;;;;;;;;;;;;;;12.72;100.00;99937.88;10373124;28;19935;-65
2022/05/30 07:59:01;;;;;;;;;;;;;;;12.63;100.00;99940.72;10372480;28;19925;-67
2022/05/30 08:04:07;;;;;;;;;;;;;;;12.73;100.00;99939.59;10372653;28;19936;-65
2022/05/30 08:09:10;;;;;;;;;;;;;;;12.81;100.00;99935.03;10372293;28;19925;-66
2022/05/30 08:14:13;;;;;;;;;;;;;;;12.96;100.00;99939.84;10372563;28;19934;-64
2022/05/30 08:19:18;;;;;;;;;;;;;;;12.96;100.00;99934.63;10372319;28;19936;-63
2022/05/30 08:24:41;;;;;;;;;;;;;;;12.93;100.00;99939.94;10372113;28;19925;-64
2022/05/30 08:29:45;;;;;;;;;;;;;;;12.89;100.00;99938.28;10371730;28;19925;-67
2022/05/30 08:34:49;;;;;;;;;;;;;;;12.98;100.00;99935.44;10370867;28;19931;-65
2022/05/30 08:45:16;;;;;;;;;;;;;;;13.04;100.00;99944.88;10371662;28;19926;-70
2022/05/30 08:50:26;;;;;;;;;;;;;;;13.01;100.00;99940.56;10371031;28;19925;-65
2022/05/30 08:55:38;;;;;;;;;;;;;;;13.02;100.00;99942.31;10371246;28;19962;-66
2022/05/30 09:00:44;;;;;;;;;;;;;;;12.94;100.00;99938.19;10370845;28;19925;-66
2022/05/30 09:05:51;;;;;;;;;;;;;;;12.96;100.00;99937.22;10370990;28;20026;-63
2022/05/30 09:10:56;;;;;;;;;;;;;;;13.06;100.00;99938.75;10370592;28;19936;-68
2022/05/30 09:16:02;;;;;;;;;;;;;;;13.06;100.00;99937.88;10370553;28;19925;-68
2022/05/30 09:21:08;;;;;;;;;;;;;;;13.11;100.00;99939.47;10370161;28;19926;-65
2022/05/30 09:26:13;;;;;;;;;;;;;;;13.09;100.00;99943.00;10370455;28;19986;-67
2022/05/30 09:31:24;;;;;;;;;;;;;;;13.22;100.00;99944.41;10370539;28;19936;-67
2022/05/30 09:36:30;;;;;;;;;;;;;;;13.24;100.00;99946.06;10370339;28;19929;-67
2022/05/30 09:41:47;;;;;;;;;;;;;;;13.23;100.00;99944.34;10369798;28;19940;-65
2022/05/30 09:46:52;;;;;;;;;;;;;;;13.27;100.00;99940.75;10372742;28;20261;-68
2022/05/30 09:52:00;;;;;;;;;;;;;;;13.20;100.00;99943.59;10376837;28;19981;-64
2022/05/30 09:57:06;;;;;;;;;;;;;;;13.13;100.00;99948.09;10376524;28;19965;-67
2022/05/30 10:02:20;;;;;;;;;;;;;;;13.22;100.00;99945.25;10376466;28;19935;-68
2022/05/30 10:07:25;;;;;;;;;;;;;;;13.34;100.00;99950.13;10376604;28;19948;-68
2022/05/30 10:12:30;;;;;;;;;;;;;;;13.45;100.00;99945.47;10375792;28;19932;-69
2022/05/30 10:17:34;;;;;;;;;;;;;;;13.51;100.00;99942.66;10375979;28;19948;-66
2022/05/30 10:28:15;;;;;;;;;;;;;;;13.97;100.00;99941.31;10375563;28;19926;-67
2022/05/30 10:33:26;;;;;;;;;;;;;;;14.21;100.00;99951.00;10374917;28;20384;-68
2022/05/30 10:38:40;;;;;;;;;;;;;;;14.68;100.00;99947.75;10375433;28;20005;-65
2022/05/30 10:43:50;;;;;;;;;;;;;;;14.96;100.00;99943.31;10375385;28;20039;-68
2022/05/30 10:48:58;;;;;;;;;;;;;;;14.90;100.00;99946.97;10375201;28;20395;-67
2022/05/30 10:54:06;;;;;;;;;;;;;;;14.87;100.00;99962.78;10374438;28;20342;-66
2022/05/30 10:59:17;;;;;;;;;;;;;;;14.85;100.00;99966.31;10373319;28;19990;-67
2022/05/30 11:04:38;;;;;;;;;;;;;;;14.52;100.00;99964.81;10374154;28;20421;-65
2022/05/30 11:09:46;;;;;;;;;;;;;;;14.45;100.00;99966.78;10374155;28;19929;-66
2022/05/30 11:14:54;;;;;;;;;;;;;;;14.76;100.00;99958.78;10374716;28;19925;-67
2022/05/30 11:20:21;;;;;;;;;;;;;;;15.20;100.00;99963.38;10373375;28;19926;-66
2022/05/30 11:25:31;;;;;;;;;;;;;;;14.76;100.00;99961.41;10373585;28;19929;-66
2022/05/30 11:30:40;;;;;;;;;;;;;;;14.36;100.00;99968.81;10373418;28;19933;-67
2022/05/30 11:35:49;;;;;;;;;;;;;;;14.36;100.00;99971.41;10373482;28;19935;-67
2022/05/30 11:40:58;;;;;;;;;;;;;;;14.29;100.00;99975.16;10373134;28;19925;-65
2022/05/30 11:46:06;;;;;;;;;;;;;;;14.12;100.00;99978.25;10373211;28;19947;-64
2022/05/30 11:51:19;;;;;;;;;;;;;;;14.20;100.00;99973.66;10373051;28;19926;-63
2022/05/30 11:56:26;;;;;;;;;;;;;;;15.22;100.00;99966.75;10373145;28;20008;-66
2022/05/30 12:01:31;;;;;;;;;;;;;;;15.82;100.00;99969.81;10369962;28;19989;-64
2022/05/30 12:06:52;;;;;;;;;;;;;;;15.17;100.00;99973.06;10371937;28;19929;-64
2022/05/30 12:12:10;;;;;;;;;;;;;;;14.72;100.00;99973.72;10374845;28;19936;-65
2022/05/30 12:17:23;;;;;;;;;;;;;;;14.35;100.00;99981.03;10372267;28;20288;-66
2022/05/30 12:27:47;;;;;;;;;;;;;;;14.21;100.00;99985.78;10371971;28;19925;-65
2022/05/30 12:32:52;;;;;;;;;;;;;;;14.35;100.00;99995.84;10371566;28;19926;-65
2022/05/30 12:38:14;;;;;;;;;;;;;;;14.65;100.00;99985.25;10371582;28;20266;-66
2022/05/30 12:43:43;;;;;;;;;;;;;;;14.55;100.00;99994.31;10371252;28;20016;-65
2022/05/30 12:49:05;;;;;;;;;;;;;;;14.34;100.00;99989.75;10372808;28;19926;-68
2022/05/30 12:54:16;;;;;;;;;;;;;;;14.03;100.00;99998.56;10403805;28;19936;-67
2022/05/30 12:59:21;;;;;;;;;;;;;;;14.30;100.00;99995.13;10371235;28;20304;-65
2022/05/30 13:04:25;;;;;;;;;;;;;;;14.10;100.00;99995.69;10371128;28;20265;-67
2022/05/30 13:09:37;;;;;;;;;;;;;;;14.01;100.00;100005.56;10370915;28;19926;-66
2022/05/30 13:14:49;;;;;;;;;;;;;;;13.93;100.00;100011.00;10370800;28;20004;-66
2022/05/30 13:19:54;;;;;;;;;;;;;;;13.97;100.00;100009.16;10370524;28;19934;-68
2022/05/30 13:24:59;;;;;;;;;;;;;;;13.74;100.00;100030.69;10377803;28;20062;-66
2022/05/30 13:30:04;;;;;;;;;;;;;;;13.52;100.00;100037.41;10378129;28;19926;-66
2022/05/30 13:35:09;;;;;;;;;;;;;;;13.35;100.00;100045.69;10377062;28;19926;-67
2022/05/30 13:40:15;;;;;;;;;;;;;;;13.28;100.00;100054.56;10377400;28;20369;-63
2022/05/30 13:45:19;;;;;;;;;;;;;;;13.44;100.00;100055.84;10377035;28;20258;-66
2022/05/30 13:50:49;;;;;;;;;;;;;;;13.32;100.00;100061.38;10377104;28;19929;-67
2022/05/30 13:55:56;;;;;;;;;;;;;;;13.44;100.00;100068.03;10376806;28;19933;-64
2022/05/30 14:01:01;;;;;;;;;;;;;;;13.63;100.00;100077.09;10377180;28;19925;-63
2022/05/30 14:06:18;;;;;;;;;;;;;;;13.88;100.00;100076.38;10376134;28;20346;-67
2022/05/30 14:11:23;;;;;;;;;;;;;;;14.04;97.90;100068.97;10377095;28;19982;-67
2022/05/30 14:16:38;;;;;;;;;;;;;;;14.18;96.54;100066.81;10375501;28;19936;-68
2022/05/30 14:21:49;;;;;;;;;;;;;;;14.53;95.07;100068.41;10375880;28;20262;-64
2022/05/30 14:26:54;;;;;;;;;;;;;;;14.71;93.54;100075.66;10375224;28;20008;-64
2022/05/30 14:32:05;;;;;;;;;;;;;;;14.47;92.64;100073.78;10375799;28;19926;-69
2022/05/30 14:37:16;;;;;;;;;;;;;;;14.42;94.76;100080.91;10375141;28;19926;-68
2022/05/30 14:42:21;;;;;;;;;;;;;;;14.13;96.17;100079.16;10375304;28;19925;-64
2022/05/30 14:47:29;;;;;;;;;;;;;;;14.16;94.45;100083.41;10375403;28;19932;-65
2022/05/30 14:52:34;;;;;;;;;;;;;;;14.01;95.82;100078.63;10374881;28;19925;-67
2022/05/30 14:57:42;;;;;;;;;;;;;;;13.98;96.25;100082.16;10374367;28;19935;-64
2022/05/30 15:08:07;;;;;;;;;;;;;;;13.73;100.00;100074.19;10374389;28;19936;-66
2022/05/30 15:13:11;;;;;;;;;;;;;;;13.76;99.64;100079.31;10374228;28;19925;-67
2022/05/30 15:18:15;;;;;;;;;;;;;;;13.73;100.00;100086.38;10374419;28;20262;-66
2022/05/30 15:23:18;;;;;;;;;;;;;;;13.87;100.00;100095.50;10373475;28;19961;-64
2022/05/30 15:28:23;;;;;;;;;;;;;;;14.33;100.00;100102.94;10371608;28;19925;-65
2022/05/30 15:33:26;;;;;;;;;;;;;;;14.74;99.44;100089.47;10373647;28;19930;-64
2022/05/30 15:38:29;;;;;;;;;;;;;;;14.88;99.90;100096.88;10373676;28;19926;-64
2022/05/30 15:43:36;;;;;;;;;;;;;;;15.02;94.00;100102.53;10373312;28;19934;-68
2022/05/30 15:48:40;;;;;;;;;;;;;;;15.15;88.74;100116.06;10371777;28;20357;-65
2022/05/30 15:59:16;;;;;;;;;;;;;;;14.90;84.94;100115.97;10371158;28;20255;-64
2022/05/30 16:04:19;;;;;;;;;;;;;;;14.69;85.52;100119.25;10371733;28;19925;-63
2022/05/30 16:09:25;;;;;;;;;;;;;;;14.74;85.41;100126.03;10371471;28;20323;-62
2022/05/30 16:14:30;;;;;;;;;;;;;;;14.29;85.91;100137.03;10371144;28;19925;-66
2022/05/30 16:19:33;;;;;;;;;;;;;;;14.12;82.75;100140.06;10371107;28;19925;-64
2022/05/30 16:24:36;;;;;;;;;;;;;;;14.06;84.11;100160.25;10370729;28;20313;-67
2022/05/30 16:29:40;;;;;;;;;;;;;;;13.85;85.98;100152.13;10370661;28;20311;-66
2022/05/30 16:34:43;;;;;;;;;;;;;;;13.65;90.79;100153.53;10370385;28;19939;-65
2022/05/30 16:39:46;;;;;;;;;;;;;;;13.64;91.90;100168.31;10370349;28;19987;-65
2022/05/30 16:44:51;;;;;;;;;;;;;;;13.38;94.70;100172.47;10370190;28;19936;-67
2022/05/30 16:49:54;;;;;;;;;;;;;;;13.32;95.34;100170.03;10370064;28;19926;-66
2022/05/30 16:54:57;;;;;;;;;;;;;;;13.36;94.73;100174.25;10369934;28;20020;-67
2022/05/30 17:00:22;;;;;;;;;;;;;;;13.41;94.65;100186.28;10377000;28;19925;-65
2022/05/30 17:05:27;;;;;;;;;;;;;;;13.53;95.88;100174.72;10377218;28;20435;-64
2022/05/30 17:10:31;;;;;;;;;;;;;;;13.56;97.03;100175.47;10376855;28;19932;-65
2022/05/30 17:15:37;;;;;;;;;;;;;;;13.73;96.91;100177.66;10376959;28;20024;-64
2022/05/30 17:20:44;;;;;;;;;;;;;;;13.59;95.73;100183.22;10376967;28;19982;-65
2022/05/30 17:25:50;;;;;;;;;;;;;;;13.56;95.91;100185.88;10377116;28;20029;-66
2022/05/30 17:30:56;;;;;;;;;;;;;;;13.50;95.68;100188.66;10376301;28;19925;-66
2022/05/30 17:35:59;;;;;;;;;;;;;;;13.58;95.94;100189.31;10376030;28;20017;-64
2022/05/30 17:41:02;;;;;;;;;;;;;;;13.30;96.50;100198.72;10376165;28;19940;-66
2022/05/30 17:46:15;;;;;;;;;;;;;;;13.20;97.14;100199.81;10375745;28;20024;-66
2022/05/30 17:51:22;;;;;;;;;;;;;;;13.19;98.06;100205.06;10375733;28;20021;-65
2022/05/30 17:56:26;;;;;;;;;;;;;;;13.02;99.46;100215.88;10376058;28;19936;-63
2022/05/30 18:01:31;;;;;;;;;;;;;;;12.94;99.68;100215.19;10376565;28;19926;-64
2022/05/30 18:06:38;;;;;;;;;;;;;;;12.91;99.63;100223.03;10376008;28;19990;-69
2022/05/30 18:11:44;;;;;;;;;;;;;;;13.03;99.10;100227.16;10376157;28;19925;-66
2022/05/30 18:16:51;;;;;;;;;;;;;;;13.09;98.72;100227.03;10376107;28;20016;-65
2022/05/30 18:22:07;;;;;;;;;;;;;;;12.82;100.00;100233.66;10376100;28;19934;-67
2022/05/30 18:27:10;;;;;;;;;;;;;;;12.84;100.00;100239.69;10375891;28;20254;-70
2022/05/30 18:32:20;;;;;;;;;;;;;;;12.86;100.00;100247.50;10375145;28;19926;-62
2022/05/30 18:37:26;;;;;;;;;;;;;;;12.81;100.00;100265.78;10375418;28;19952;-63
2022/05/30 18:42:34;;;;;;;;;;;;;;;12.66;100.00;100272.19;10533299;28;20309;-68
2022/05/30 18:47:41;;;;;;;;;;;;;;;12.66;100.00;100276.53;10589459;28;19923;-65
2022/05/30 18:53:04;;;;;;;;;;;;;;;12.76;100.00;100275.44;10589159;28;19942;-65
2022/05/30 18:58:11;;;;;;;;;;;;;;;12.71;100.00;100275.56;10547718;28;19929;-67
2022/05/30 19:03:18;;;;;;;;;;;;;;;12.70;100.00;100278.19;10374764;28;20267;-65
2022/05/30 19:08:21;;;;;;;;;;;;;;;12.65;100.00;100280.88;10374841;28;19925;-65
2022/05/30 19:13:29;;;;;;;;;;;;;;;12.56;100.00;100285.41;10374348;28;19925;-65
2022/05/30 19:18:39;;;;;;;;;;;;;;;12.76;100.00;100285.88;10373409;28;19926;-66
2022/05/30 19:23:42;;;;;;;;;;;;;;;12.65;100.00;100290.41;10374735;28;19925;-66
2022/05/30 19:28:46;;;;;;;;;;;;;;;12.54;100.00;100292.41;10374076;28;19925;-64
2022/05/30 19:33:57;;;;;;;;;;;;;;;12.58;100.00;100307.91;10373918;28;19925;-66
2022/05/30 19:39:00;;;;;;;;;;;;;;;12.63;99.38;100307.84;10373854;28;19952;-66
2022/05/30 19:44:04;;;;;;;;;;;;;;;12.57;100.00;100308.81;10373685;28;19936;-65
2022/05/30 19:49:11;;;;;;;;;;;;;;;12.40;100.00;100321.28;10373785;28;20346;-65
2022/05/30 19:54:14;;;;;;;;;;;;;;;12.16;100.00;100329.53;10373336;28;19926;-67
2022/05/30 19:59:17;;;;;;;;;;;;;;;12.17;100.00;100339.03;10373154;28;20250;-66
2022/05/30 20:04:22;;;;;;;;;;;;;;;12.11;100.00;100346.09;10372943;28;19926;-64
2022/05/30 20:09:27;;;;;;;;;;;;;;;11.93;100.00;100352.44;10372234;28;20221;-68
2022/05/30 20:14:30;;;;;;;;;;;;;;;11.85;100.00;100367.31;10372697;28;19936;-65
2022/05/30 20:19:37;;;;;;;;;;;;;;;11.74;100.00;100371.81;10372544;28;19931;-63
2022/05/30 20:24:41;;;;;;;;;;;;;;;11.68;100.00;100371.91;10372340;28;20024;-66
2022/05/30 20:29:44;;;;;;;;;;;;;;;11.66;100.00;100359.81;10372226;28;19935;-66
2022/05/30 20:34:48;;;;;;;;;;;;;;;11.52;100.00;100352.16;10371953;28;19936;-65
2022/05/30 20:39:51;;;;;;;;;;;;;;;11.43;100.00;100353.16;10371826;28;20354;-68
2022/05/30 20:44:55;;;;;;;;;;;;;;;11.23;100.00;100347.34;10404534;28;19933;-65
2022/05/30 20:49:59;;;;;;;;;;;;;;;11.09;100.00;100351.88;10372317;28;19936;-64
2022/05/30 20:55:02;;;;;;;;;;;;;;;10.95;100.00;100352.91;10371732;28;20251;-69
2022/05/30 21:00:07;;;;;;;;;;;;;;;11.05;100.00;100354.53;10371299;28;19925;-67
2022/05/30 21:05:13;;;;;;;;;;;;;;;10.87;100.00;100360.78;10371510;28;19926;-65
2022/05/30 21:10:18;;;;;;;;;;;;;;;10.72;100.00;100375.66;10371772;28;20016;-64
2022/05/30 21:15:22;;;;;;;;;;;;;;;10.62;100.00;100361.94;10371039;28;19948;-65
2022/05/30 21:20:27;;;;;;;;;;;;;;;10.54;100.00;100360.28;10371072;28;19979;-65
2022/05/30 21:25:31;;;;;;;;;;;;;;;10.52;100.00;100367.22;10370834;28;19936;-64
2022/05/30 21:30:34;;;;;;;;;;;;;;;10.57;100.00;100370.63;10370705;28;19936;-64
2022/05/30 21:35:39;;;;;;;;;;;;;;;10.52;100.00;100380.19;10370545;28;19925;-64
2022/05/30 21:40:42;;;;;;;;;;;;;;;10.44;100.00;100386.31;10370304;28;20296;-67
2022/05/30 21:45:45;;;;;;;;;;;;;;;10.40;100.00;100387.25;10377913;28;19925;-63
2022/05/30 21:50:50;;;;;;;;;;;;;;;10.37;100.00;100401.97;10377656;28;19926;-64
2022/05/30 21:55:53;;;;;;;;;;;;;;;10.40;100.00;100405.41;10377193;28;19938;-64
2022/05/30 22:00:56;;;;;;;;;;;;;;;10.40;100.00;100397.63;10376606;28;20338;-64
2022/05/30 22:06:05;;;;;;;;;;;;;;;10.43;100.00;100414.88;10376777;28;20339;-63
2022/05/30 22:11:12;;;;;;;;;;;;;;;10.36;100.00;100403.69;10376746;28;19926;-67
2022/05/30 22:16:18;;;;;;;;;;;;;;;10.38;100.00;100403.69;10376500;28;19944;-65
2022/05/30 22:21:23;;;;;;;;;;;;;;;10.36;100.00;100406.28;10376086;28;19932;-64
2022/05/30 22:26:28;;;;;;;;;;;;;;;10.30;100.00;100402.91;10376014;28;19950;-65
2022/05/30 22:31:32;;;;;;;;;;;;;;;10.30;100.00;100416.72;10376130;28;19936;-67
2022/05/30 22:36:37;;;;;;;;;;;;;;;10.22;100.00;100418.50;10375816;28;19997;-64
2022/05/30 22:41:40;;;;;;;;;;;;;;;10.25;100.00;100428.03;10375978;28;19926;-66
2022/05/30 22:46:43;;;;;;;;;;;;;;;10.27;100.00;100434.03;10375524;28;19929;-62
2022/05/30 22:51:48;;;;;;;;;;;;;;;10.17;100.00;100440.16;10374771;28;20339;-64
2022/05/30 22:56:52;;;;;;;;;;;;;;;10.08;100.00;100435.91;10371974;28;19948;-62
2022/05/30 23:01:55;;;;;;;;;;;;;;;9.98;100.00;100451.50;10372821;28;19926;-63
2022/05/30 23:06:59;;;;;;;;;;;;;;;9.97;100.00;100449.78;10373488;28;19936;-63
2022/05/30 23:12:02;;;;;;;;;;;;;;;9.94;100.00;100457.59;10374415;28;19947;-65
2022/05/30 23:17:07;;;;;;;;;;;;;;;10.01;100.00;100462.72;10375334;28;19926;-66
2022/05/30 23:22:12;;;;;;;;;;;;;;;10.07;100.00;100452.31;10374706;28;19925;-64
2022/05/30 23:27:15;;;;;;;;;;;;;;;10.18;100.00;100455.72;10374348;28;20607;-67
2022/05/30 23:32:18;;;;;;;;;;;;;;;10.36;100.00;100454.72;10374369;28;19935;-68
2022/05/30 23:37:23;;;;;;;;;;;;;;;10.31;100.00;100461.69;10373713;28;20273;-67
2022/05/30 23:47:58;;;;;;;;;;;;;;;10.36;100.00;100467.69;10321429;28;19960;-66
2022/05/30 23:53:03;;;;;;;;;;;;;;;10.45;100.00;100475.41;10372992;28;20358;-65
2022/05/30 23:58:06;;;;;;;;;;;;;;;10.50;100.00;100476.22;10373643;28;19926;-67
